createdAt,value
2023-01-29T00:02:46.871Z,65.32
2023-01-29T00:05:50.094Z,65.67
2023-01-29T00:08:52.635Z,66.81
2023-01-29T00:11:55.778Z,66.26
2023-01-29T00:14:58.356Z,65.78
2023-01-29T00:18:01.586Z,66.04
2023-01-29T00:21:04.442Z,67.03
2023-01-29T00:24:07.791Z,65.93
2023-01-29T00:27:11.236Z,66.24
2023-01-29T00:30:19.353Z,66.10
2023-01-29T00:33:22.161Z,66.08
2023-01-29T00:36:26.452Z,66.88
2023-01-29T00:39:47.502Z,67.62
2023-01-29T00:43:10.080Z,67.54
2023-01-29T00:46:14.515Z,67.54
2023-01-29T00:49:17.667Z,67.65
2023-01-29T00:52:26.363Z,67.23
2023-01-29T00:55:29.464Z,66.42
2023-01-29T00:58:34.448Z,67.66
2023-01-29T01:01:56.411Z,67.30
2023-01-29T01:04:59.068Z,67.65
2023-01-29T01:08:02.240Z,68.16
2023-01-29T01:11:06.829Z,68.76
2023-01-29T01:14:09.968Z,68.78
2023-01-29T01:17:12.528Z,69.11
2023-01-29T01:20:16.381Z,69.26
2023-01-29T01:23:19.714Z,69.14
2023-01-29T01:26:22.806Z,69.17
2023-01-29T01:29:25.469Z,69.16
2023-01-29T01:32:28.723Z,69.11
2023-01-29T01:35:31.247Z,68.59
2023-01-29T01:38:34.556Z,67.78
2023-01-29T01:41:37.165Z,68.26
2023-01-29T01:45:10.364Z,68.45
2023-01-29T01:48:19.743Z,68.58
2023-01-29T01:51:26.329Z,68.59
2023-01-29T01:54:32.343Z,68.45
2023-01-29T01:57:36.529Z,68.82
2023-01-29T02:00:39.589Z,69.55
2023-01-29T02:04:12.215Z,69.59
2023-01-29T02:07:34.749Z,69.86
2023-01-29T02:10:46.792Z,70.22
2023-01-29T02:13:53.864Z,70.15
2023-01-29T02:17:02.030Z,70.24
2023-01-29T02:20:12.141Z,70.82
2023-01-29T02:23:29.367Z,70.90
2023-01-29T02:26:32.288Z,70.31
2023-01-29T02:29:50.375Z,70.60
2023-01-29T02:33:17.276Z,70.16
2023-01-29T02:36:22.933Z,70.52
2023-01-29T02:39:34.122Z,70.82
2023-01-29T02:42:59.737Z,70.70
2023-01-29T02:46:20.949Z,71.14
2023-01-29T02:49:36.097Z,70.58
2023-01-29T02:52:56.847Z,70.10
2023-01-29T02:56:09.870Z,70.56
2023-01-29T02:59:17.647Z,70.69
2023-01-29T03:02:29.244Z,70.34
2023-01-29T03:05:55.106Z,70.13
2023-01-29T03:09:33.015Z,70.86
2023-01-29T03:12:41.140Z,70.69
2023-01-29T03:15:51.264Z,71.01
2023-01-29T03:19:04.077Z,71.29
2023-01-29T03:22:10.784Z,71.55
2023-01-29T03:25:34.231Z,71.38
2023-01-29T03:28:59.275Z,71.14
2023-01-29T03:32:08.773Z,71.10
2023-01-29T03:35:21.067Z,70.32
2023-01-29T03:38:29.546Z,70.68
2023-01-29T03:41:38.662Z,70.06
2023-01-29T03:44:41.807Z,70.12
2023-01-29T03:48:15.159Z,69.86
2023-01-29T03:51:28.338Z,69.93
2023-01-29T03:54:51.630Z,69.27
2023-01-29T03:58:05.005Z,69.75
2023-01-29T04:01:23.126Z,69.85
2023-01-29T04:04:37.981Z,69.56
2023-01-29T04:07:44.316Z,69.73
2023-01-29T04:10:49.493Z,69.82
2023-01-29T04:13:52.725Z,70.17
2023-01-29T04:17:00.251Z,69.21
2023-01-29T04:20:05.907Z,69.18
2023-01-29T04:23:21.406Z,68.93
2023-01-29T04:26:27.480Z,68.66
2023-01-29T04:29:50.963Z,68.60
2023-01-29T04:33:14.786Z,68.84
2023-01-29T04:36:32.988Z,68.34
2023-01-29T04:39:54.179Z,68.55
2023-01-29T04:43:46.313Z,68.41
2023-01-29T04:47:02.307Z,69.09
2023-01-29T04:50:33.792Z,69.31
2023-01-29T04:53:45.104Z,69.23
2023-01-29T04:56:53.696Z,68.15
2023-01-29T05:00:22.473Z,69.01
2023-01-29T05:03:27.584Z,67.67
2023-01-29T05:06:32.311Z,67.35
2023-01-29T05:09:37.356Z,67.51
2023-01-29T05:12:43.674Z,67.23
2023-01-29T05:15:59.021Z,66.68
2023-01-29T05:19:01.876Z,67.49
2023-01-29T05:22:06.417Z,67.34
2023-01-29T05:25:30.376Z,67.22
2023-01-29T05:28:33.068Z,66.28
2023-01-29T05:31:35.763Z,67.04
2023-01-29T05:34:38.646Z,66.54
2023-01-29T05:37:41.675Z,66.45
2023-01-29T05:40:44.744Z,67.26
2023-01-29T05:43:47.704Z,66.37
2023-01-29T05:46:51.161Z,66.92
2023-01-29T05:49:54.944Z,66.38
2023-01-29T05:52:59.241Z,65.92
2023-01-29T05:56:03.265Z,65.80
2023-01-29T05:59:07.356Z,65.80
2023-01-29T06:02:10.162Z,65.14
2023-01-29T06:05:14.004Z,65.03
2023-01-29T06:08:16.793Z,65.21
2023-01-29T06:11:20.614Z,64.89
2023-01-29T06:14:23.447Z,64.12
2023-01-29T06:17:26.280Z,63.85
2023-01-29T06:20:29.069Z,64.55
2023-01-29T06:23:32.178Z,63.71
2023-01-29T06:26:35.143Z,64.23
2023-01-29T06:29:38.159Z,64.47
2023-01-29T06:32:41.122Z,64.76
2023-01-29T06:35:44.010Z,65.47
2023-01-29T06:38:47.338Z,65.34
2023-01-29T06:41:50.124Z,64.90
2023-01-29T06:44:52.911Z,65.76
2023-01-29T06:47:56.585Z,66.00
2023-01-29T06:51:07.815Z,66.22
2023-01-29T06:54:11.314Z,66.80
2023-01-29T06:57:13.953Z,67.14
2023-01-29T07:00:17.432Z,66.46
2023-01-29T07:03:20.575Z,66.20
2023-01-29T07:06:28.092Z,66.40
2023-01-29T07:09:31.192Z,65.50
2023-01-29T07:12:34.030Z,65.71
2023-01-29T07:15:37.355Z,65.92
2023-01-29T07:18:40.248Z,65.12
2023-01-29T07:21:43.089Z,66.12
2023-01-29T07:24:45.964Z,65.95
2023-01-29T07:27:49.702Z,65.15
2023-01-29T07:30:59.217Z,65.24
2023-01-29T07:34:02.275Z,65.12
2023-01-29T07:37:06.323Z,65.60
2023-01-29T07:40:11.445Z,65.40
2023-01-29T07:43:17.228Z,65.58
2023-01-29T07:46:20.213Z,65.22
2023-01-29T07:49:22.987Z,64.51
2023-01-29T07:52:25.847Z,64.57
2023-01-29T07:55:28.721Z,63.98
2023-01-29T07:58:31.561Z,64.72
2023-01-29T08:01:34.431Z,64.81
2023-01-29T08:04:37.692Z,64.61
2023-01-29T08:07:40.175Z,64.57
2023-01-29T08:10:43.503Z,63.27
2023-01-29T08:13:46.763Z,64.34
2023-01-29T08:16:50.512Z,63.45
2023-01-29T08:19:53.190Z,63.38
2023-01-29T08:23:05.078Z,62.68
2023-01-29T08:26:07.855Z,62.01
2023-01-29T08:29:12.194Z,62.06
2023-01-29T08:32:14.844Z,62.87
2023-01-29T08:35:18.138Z,62.03
2023-01-29T08:38:21.619Z,62.10
2023-01-29T08:41:24.820Z,62.58
2023-01-29T08:44:27.376Z,61.06
2023-01-29T08:47:30.461Z,61.47
2023-01-29T08:50:34.923Z,61.83
2023-01-29T08:53:38.054Z,61.62
2023-01-29T08:56:40.593Z,62.16
2023-01-29T08:59:43.715Z,61.51
2023-01-29T09:02:46.348Z,61.96
2023-01-29T09:05:49.579Z,61.47
2023-01-29T09:08:52.153Z,61.98
2023-01-29T09:11:55.321Z,61.12
2023-01-29T09:14:58.024Z,61.22
2023-01-29T09:18:04.378Z,60.96
2023-01-29T09:21:07.215Z,61.56
2023-01-29T09:24:10.863Z,60.76
2023-01-29T09:27:13.457Z,60.14
2023-01-29T09:30:17.309Z,59.32
2023-01-29T09:33:20.565Z,60.78
2023-01-29T09:36:23.886Z,60.64
2023-01-29T09:39:26.417Z,60.98
2023-01-29T09:42:44.138Z,59.59
2023-01-29T09:46:05.586Z,59.42
2023-01-29T09:49:26.667Z,58.92
2023-01-29T09:52:45.716Z,58.30
2023-01-29T09:56:02.380Z,57.88
2023-01-29T09:59:05.058Z,58.10
2023-01-29T10:02:53.388Z,58.97
2023-01-29T10:06:15.410Z,57.74
2023-01-29T10:09:27.316Z,59.15
2023-01-29T10:12:48.796Z,57.88
2023-01-29T10:16:48.690Z,58.06
2023-01-29T10:20:05.307Z,57.54
2023-01-29T10:23:34.739Z,56.74
2023-01-29T10:26:40.662Z,56.08
2023-01-29T10:29:46.928Z,57.06
2023-01-29T10:32:54.441Z,54.91
2023-01-29T10:36:03.313Z,55.49
2023-01-29T10:39:22.015Z,56.03
2023-01-29T10:42:35.436Z,56.69
2023-01-29T10:45:57.537Z,56.84
2023-01-29T10:49:37.263Z,56.21
2023-01-29T10:53:18.244Z,56.64
2023-01-29T10:56:30.069Z,56.23
2023-01-29T11:00:12.834Z,55.95
2023-01-29T11:03:28.612Z,54.67
2023-01-29T11:06:36.901Z,55.18
2023-01-29T11:10:00.624Z,55.99
2023-01-29T11:13:05.419Z,55.42
2023-01-29T11:16:09.404Z,54.74
2023-01-29T11:19:13.149Z,55.48
2023-01-29T11:22:20.183Z,55.69
2023-01-29T11:25:24.727Z,53.83
2023-01-29T11:28:41.023Z,53.64
2023-01-29T11:31:44.384Z,53.65
2023-01-29T11:35:16.422Z,52.47
2023-01-29T11:38:24.145Z,53.40
2023-01-29T11:41:27.039Z,53.97
2023-01-29T11:44:39.693Z,52.93
2023-01-29T11:47:42.417Z,53.00
2023-01-29T11:50:52.920Z,51.56
2023-01-29T11:53:58.584Z,52.49
2023-01-29T11:57:03.575Z,51.75
2023-01-29T12:00:31.478Z,52.01
2023-01-29T12:03:43.720Z,51.97
2023-01-29T12:06:52.069Z,51.90
2023-01-29T12:09:58.000Z,51.34
2023-01-29T12:13:22.317Z,51.53
2023-01-29T12:16:32.196Z,51.07
2023-01-29T12:19:47.658Z,49.34
2023-01-29T12:22:58.604Z,50.56
2023-01-29T12:26:07.967Z,50.67
2023-01-29T12:29:32.566Z,49.65
2023-01-29T12:32:42.309Z,48.42
2023-01-29T12:35:54.885Z,48.77
2023-01-29T12:38:59.025Z,49.08
2023-01-29T12:42:09.109Z,47.95
2023-01-29T12:45:19.140Z,46.90
2023-01-29T12:48:31.548Z,46.74
2023-01-29T12:51:40.783Z,44.95
2023-01-29T12:54:53.813Z,46.51
2023-01-29T12:58:13.977Z,46.23
2023-01-29T13:01:32.053Z,45.19
2023-01-29T13:04:43.602Z,45.11
2023-01-29T13:08:06.063Z,43.98
2023-01-29T13:11:27.548Z,44.74
2023-01-29T13:14:52.801Z,44.89
2023-01-29T13:18:11.593Z,39.29
2023-01-29T13:21:40.102Z,39.72
2023-01-29T13:24:47.881Z,37.40
2023-01-29T13:27:53.906Z,36.89
2023-01-29T13:31:21.676Z,33.33
2023-01-29T13:34:28.577Z,29.58
2023-01-29T13:37:34.600Z,27.49
2023-01-29T13:40:38.504Z,27.49
2023-01-29T13:43:43.662Z,28.98
2023-01-29T13:47:24.234Z,30.92
2023-01-29T13:50:41.570Z,33.02
2023-01-29T13:53:54.091Z,35.61
2023-01-29T13:57:01.988Z,35.99
2023-01-29T14:00:06.599Z,37.79
2023-01-29T14:03:11.781Z,38.77
2023-01-29T14:06:40.631Z,40.07
2023-01-29T14:09:43.385Z,41.37
2023-01-29T14:12:47.802Z,42.20
2023-01-29T14:15:56.584Z,43.22
2023-01-29T14:19:02.132Z,43.35
2023-01-29T14:22:18.976Z,43.97
2023-01-29T14:25:28.734Z,44.92
2023-01-29T14:28:33.615Z,45.73
2023-01-29T14:31:39.136Z,45.81
2023-01-29T14:34:49.763Z,47.13
2023-01-29T14:37:57.593Z,48.02
2023-01-29T14:41:07.640Z,48.14
2023-01-29T14:44:44.803Z,48.93
2023-01-29T14:47:47.576Z,49.30
2023-01-29T14:50:52.164Z,50.01
2023-01-29T14:54:02.699Z,50.45
2023-01-29T14:57:13.471Z,50.04
2023-01-29T15:00:24.361Z,51.07
2023-01-29T15:03:40.099Z,51.51
2023-01-29T15:06:57.834Z,51.59
2023-01-29T15:10:22.281Z,50.85
2023-01-29T15:13:36.000Z,51.27
2023-01-29T15:17:06.339Z,51.57
2023-01-29T15:20:33.256Z,51.75
2023-01-29T15:23:36.121Z,51.32
2023-01-29T15:26:43.051Z,52.05
2023-01-29T15:30:03.874Z,52.47
2023-01-29T15:33:10.622Z,52.37
2023-01-29T15:36:29.927Z,53.13
2023-01-29T15:39:42.847Z,53.23
2023-01-29T15:42:48.764Z,54.36
2023-01-29T15:45:55.593Z,54.72
2023-01-29T15:49:05.951Z,54.13
2023-01-29T15:52:19.250Z,54.37
2023-01-29T15:55:24.009Z,54.50
2023-01-29T15:58:32.263Z,54.91
2023-01-29T16:01:38.369Z,55.50
2023-01-29T16:04:41.443Z,55.96
2023-01-29T16:07:45.506Z,55.53
2023-01-29T16:10:53.824Z,55.83
2023-01-29T16:13:57.123Z,55.42
2023-01-29T16:17:25.022Z,56.36
2023-01-29T16:20:35.243Z,55.98
2023-01-29T16:23:48.961Z,55.40
2023-01-29T16:26:53.469Z,56.29
2023-01-29T16:29:56.467Z,56.10
2023-01-29T16:33:08.245Z,55.42
2023-01-29T16:36:19.570Z,55.40
2023-01-29T16:39:25.417Z,56.06
2023-01-29T16:42:30.426Z,56.83
2023-01-29T16:45:33.314Z,57.18
2023-01-29T16:48:36.281Z,57.43
2023-01-29T16:51:39.540Z,56.57
2023-01-29T16:54:44.720Z,57.39
2023-01-29T16:57:55.470Z,57.96
2023-01-29T17:01:09.135Z,57.11
2023-01-29T17:04:14.649Z,57.36
2023-01-29T17:07:21.414Z,57.93
2023-01-29T17:10:26.020Z,57.66
2023-01-29T17:13:36.336Z,57.61
2023-01-29T17:16:55.761Z,57.78
2023-01-29T17:20:09.646Z,57.40
2023-01-29T17:23:12.524Z,58.13
2023-01-29T17:26:15.657Z,57.06
2023-01-29T17:29:20.779Z,57.34
2023-01-29T17:32:25.220Z,57.13
2023-01-29T17:35:48.938Z,56.69
2023-01-29T17:38:52.141Z,57.07
2023-01-29T17:41:57.786Z,57.19
2023-01-29T17:45:00.693Z,57.38
2023-01-29T17:48:03.768Z,58.08
2023-01-29T17:51:10.915Z,57.80
2023-01-29T17:54:13.705Z,58.55
2023-01-29T17:57:16.904Z,57.77
2023-01-29T18:00:24.551Z,58.06
2023-01-29T18:03:27.783Z,58.40
2023-01-29T18:06:31.016Z,58.58
2023-01-29T18:09:34.029Z,58.44
2023-01-29T18:12:36.944Z,57.70
2023-01-29T18:15:40.368Z,58.33
2023-01-29T18:18:43.408Z,59.09
2023-01-29T18:21:46.624Z,58.58
2023-01-29T18:24:49.494Z,58.11
2023-01-29T18:27:52.329Z,58.62
2023-01-29T18:30:55.412Z,58.20
2023-01-29T18:33:58.400Z,58.77
2023-01-29T18:37:01.260Z,58.72
2023-01-29T18:40:05.337Z,58.46
2023-01-29T18:43:08.462Z,58.52
2023-01-29T18:46:11.520Z,58.94
2023-01-29T18:49:14.537Z,58.50
2023-01-29T18:52:18.188Z,59.00
2023-01-29T18:55:24.169Z,57.93
2023-01-29T18:58:35.308Z,57.58
2023-01-29T19:01:40.257Z,58.26
2023-01-29T19:04:43.351Z,58.61
2023-01-29T19:07:46.182Z,58.66
2023-01-29T19:10:49.080Z,58.65
2023-01-29T19:13:51.966Z,59.19
2023-01-29T19:16:56.069Z,58.95
2023-01-29T19:20:02.167Z,58.84
2023-01-29T19:23:05.089Z,58.59
2023-01-29T19:26:09.052Z,58.82
2023-01-29T19:29:17.727Z,58.51
2023-01-29T19:32:20.725Z,58.71
2023-01-29T19:35:23.848Z,59.06
2023-01-29T19:38:27.892Z,59.15
2023-01-29T19:41:31.139Z,59.11
2023-01-29T19:44:35.599Z,59.29
2023-01-29T19:47:41.548Z,59.35
2023-01-29T19:50:58.192Z,59.77
2023-01-29T19:54:02.323Z,59.31
2023-01-29T19:57:06.926Z,59.94
2023-01-29T20:00:15.511Z,59.77
2023-01-29T20:03:18.813Z,59.91
2023-01-29T20:06:28.617Z,59.30
2023-01-29T20:09:31.939Z,59.54
2023-01-29T20:12:34.939Z,59.76
2023-01-29T20:15:38.203Z,59.71
2023-01-29T20:18:40.813Z,59.79
2023-01-29T20:21:46.813Z,59.88
2023-01-29T20:24:49.499Z,59.52
2023-01-29T20:27:52.680Z,60.10
2023-01-29T20:30:56.432Z,59.29
2023-01-29T20:34:00.042Z,59.59
2023-01-29T20:37:03.147Z,59.70
2023-01-29T20:40:06.830Z,59.35
2023-01-29T20:43:09.508Z,59.21
2023-01-29T20:46:13.008Z,59.56
2023-01-29T20:49:17.370Z,59.09
2023-01-29T20:52:20.616Z,59.38
2023-01-29T20:55:23.444Z,59.95
2023-01-29T20:58:26.733Z,59.98
2023-01-29T21:01:29.640Z,59.96
2023-01-29T21:04:32.741Z,60.60
2023-01-29T21:07:36.197Z,59.92
2023-01-29T21:10:39.381Z,60.31
2023-01-29T21:13:43.998Z,60.85
2023-01-29T21:16:47.421Z,60.47
2023-01-29T21:19:50.371Z,60.77
2023-01-29T21:22:53.971Z,60.16
2023-01-29T21:26:04.514Z,60.37
2023-01-29T21:29:07.870Z,60.67
2023-01-29T21:32:11.671Z,60.93
2023-01-29T21:35:18.493Z,60.50
2023-01-29T21:38:22.103Z,60.79
2023-01-29T21:41:45.379Z,60.21
2023-01-29T21:44:47.957Z,60.51
2023-01-29T21:47:51.282Z,60.30
2023-01-29T21:50:53.841Z,60.49
2023-01-29T21:53:57.148Z,60.83
2023-01-29T21:56:59.694Z,61.08
2023-01-29T22:00:03.491Z,60.90
2023-01-29T22:03:06.919Z,60.84
2023-01-29T22:06:10.049Z,60.76
2023-01-29T22:09:13.297Z,60.79
2023-01-29T22:12:17.671Z,61.02
2023-01-29T22:15:22.504Z,61.13
2023-01-29T22:18:27.291Z,61.31
2023-01-29T22:21:30.045Z,61.41
2023-01-29T22:24:33.083Z,61.13
2023-01-29T22:27:36.013Z,61.27
2023-01-29T22:30:39.160Z,61.40
2023-01-29T22:33:42.925Z,60.48
2023-01-29T22:36:46.095Z,61.05
2023-01-29T22:39:48.720Z,60.71
2023-01-29T22:42:51.871Z,60.79
2023-01-29T22:45:54.825Z,60.70
2023-01-29T22:48:57.863Z,61.28
2023-01-29T22:52:12.658Z,60.81
2023-01-29T22:55:15.806Z,60.74
2023-01-29T22:58:18.465Z,60.80
2023-01-29T23:01:24.325Z,60.88
2023-01-29T23:04:26.991Z,60.64
2023-01-29T23:07:30.460Z,60.32
2023-01-29T23:10:33.071Z,60.47
2023-01-29T23:13:36.234Z,60.69
2023-01-29T23:16:38.811Z,60.58
2023-01-29T23:19:42.037Z,60.53
2023-01-29T23:22:44.621Z,60.77
2023-01-29T23:26:06.413Z,60.50
2023-01-29T23:29:09.486Z,60.47
2023-01-29T23:32:18.688Z,60.06
2023-01-29T23:35:21.306Z,60.15
2023-01-29T23:38:24.415Z,60.14
2023-01-29T23:41:27.056Z,60.48
2023-01-29T23:44:30.254Z,60.39
2023-01-29T23:47:32.896Z,60.39
2023-01-29T23:50:36.264Z,60.49
2023-01-29T23:53:38.889Z,60.51
2023-01-29T23:56:42.409Z,60.59
2023-01-29T23:59:44.940Z,60.39
